sensor_id;sensor_type;location;lat;lon;timestamp;P1;durP1;ratioP1;P2;durP2;ratioP2
70545;SDS011;58098;51.680;5.134;2023-04-25T00:00:13;15.37;;;4.67;;
70545;SDS011;58098;51.680;5.134;2023-04-25T00:02:39;19.20;;;4.10;;
70545;SDS011;58098;51.680;5.134;2023-04-25T00:05:04;12.70;;;4.43;;
70545;SDS011;58098;51.680;5.134;2023-04-25T00:07:30;14.47;;;4.60;;
70545;SDS011;58098;51.680;5.134;2023-04-25T00:09:57;16.55;;;4.40;;
70545;SDS011;58098;51.680;5.134;2023-04-25T00:12:23;12.80;;;4.80;;
70545;SDS011;58098;51.680;5.134;2023-04-25T00:14:48;14.03;;;4.13;;
70545;SDS011;58098;51.680;5.134;2023-04-25T00:17:15;16.50;;;4.53;;
70545;SDS011;58098;51.680;5.134;2023-04-25T00:19:41;15.77;;;4.63;;
70545;SDS011;58098;51.680;5.134;2023-04-25T00:22:07;11.70;;;4.35;;
70545;SDS011;58098;51.680;5.134;2023-04-25T00:24:32;19.97;;;5.50;;
70545;SDS011;58098;51.680;5.134;2023-04-25T00:26:58;21.70;;;5.90;;
70545;SDS011;58098;51.680;5.134;2023-04-25T00:29:23;18.40;;;5.33;;
70545;SDS011;58098;51.680;5.134;2023-04-25T00:31:48;18.57;;;5.97;;
70545;SDS011;58098;51.680;5.134;2023-04-25T00:34:14;14.20;;;5.53;;
70545;SDS011;58098;51.680;5.134;2023-04-25T00:36:39;18.43;;;4.60;;
70545;SDS011;58098;51.680;5.134;2023-04-25T00:39:04;15.17;;;4.90;;
70545;SDS011;58098;51.680;5.134;2023-04-25T00:41:31;14.40;;;4.78;;
70545;SDS011;58098;51.680;5.134;2023-04-25T00:43:57;15.52;;;5.45;;
70545;SDS011;58098;51.680;5.134;2023-04-25T00:46:24;14.88;;;4.85;;
70545;SDS011;58098;51.680;5.134;2023-04-25T00:48:49;17.83;;;4.63;;
70545;SDS011;58098;51.680;5.134;2023-04-25T00:51:19;17.77;;;4.60;;
70545;SDS011;58098;51.680;5.134;2023-04-25T00:53:45;16.40;;;4.70;;
70545;SDS011;58098;51.680;5.134;2023-04-25T00:56:12;23.73;;;5.30;;
70545;SDS011;58098;51.680;5.134;2023-04-25T00:58:38;12.97;;;4.10;;
70545;SDS011;58098;51.680;5.134;2023-04-25T01:01:07;18.90;;;5.15;;
70545;SDS011;58098;51.680;5.134;2023-04-25T01:03:33;16.58;;;5.10;;
70545;SDS011;58098;51.680;5.134;2023-04-25T01:06:00;17.15;;;4.97;;
70545;SDS011;58098;51.680;5.134;2023-04-25T01:08:27;18.33;;;5.43;;
70545;SDS011;58098;51.680;5.134;2023-04-25T01:10:52;22.40;;;5.07;;
70545;SDS011;58098;51.680;5.134;2023-04-25T01:13:18;12.97;;;4.37;;
70545;SDS011;58098;51.680;5.134;2023-04-25T01:15:43;14.83;;;4.97;;
70545;SDS011;58098;51.680;5.134;2023-04-25T01:18:09;23.70;;;5.30;;
70545;SDS011;58098;51.680;5.134;2023-04-25T01:20:34;22.57;;;5.27;;
70545;SDS011;58098;51.680;5.134;2023-04-25T01:23:03;22.63;;;4.82;;
70545;SDS011;58098;51.680;5.134;2023-04-25T01:25:30;15.87;;;5.13;;
70545;SDS011;58098;51.680;5.134;2023-04-25T01:27:56;17.90;;;4.65;;
70545;SDS011;58098;51.680;5.134;2023-04-25T01:30:23;16.80;;;4.38;;
70545;SDS011;58098;51.680;5.134;2023-04-25T01:32:51;29.98;;;5.40;;
70545;SDS011;58098;51.680;5.134;2023-04-25T01:35:17;17.83;;;4.90;;
70545;SDS011;58098;51.680;5.134;2023-04-25T01:37:43;23.25;;;4.60;;
70545;SDS011;58098;51.680;5.134;2023-04-25T01:40:09;27.97;;;5.20;;
70545;SDS011;58098;51.680;5.134;2023-04-25T01:42:37;16.50;;;4.75;;
70545;SDS011;58098;51.680;5.134;2023-04-25T01:45:03;20.85;;;5.00;;
70545;SDS011;58098;51.680;5.134;2023-04-25T01:47:30;25.02;;;5.72;;
70545;SDS011;58098;51.680;5.134;2023-04-25T01:50:00;18.93;;;4.83;;
70545;SDS011;58098;51.680;5.134;2023-04-25T01:52:25;24.00;;;5.00;;
70545;SDS011;58098;51.680;5.134;2023-04-25T01:54:51;22.13;;;5.20;;
70545;SDS011;58098;51.680;5.134;2023-04-25T01:57:17;23.77;;;5.18;;
70545;SDS011;58098;51.680;5.134;2023-04-25T01:59:43;19.93;;;5.43;;
70545;SDS011;58098;51.680;5.134;2023-04-25T02:02:08;21.58;;;4.93;;
70545;SDS011;58098;51.680;5.134;2023-04-25T02:04:33;24.30;;;5.30;;
70545;SDS011;58098;51.680;5.134;2023-04-25T02:06:58;30.40;;;5.40;;
70545;SDS011;58098;51.680;5.134;2023-04-25T02:09:24;24.93;;;4.80;;
70545;SDS011;58098;51.680;5.134;2023-04-25T02:11:49;23.20;;;4.93;;
70545;SDS011;58098;51.680;5.134;2023-04-25T02:14:15;19.37;;;5.93;;
70545;SDS011;58098;51.680;5.134;2023-04-25T02:16:40;19.30;;;5.10;;
70545;SDS011;58098;51.680;5.134;2023-04-25T02:19:06;33.33;;;5.10;;
70545;SDS011;58098;51.680;5.134;2023-04-25T02:21:31;18.13;;;5.63;;
70545;SDS011;58098;51.680;5.134;2023-04-25T02:23:57;21.23;;;5.65;;
70545;SDS011;58098;51.680;5.134;2023-04-25T02:26:22;20.10;;;5.17;;
70545;SDS011;58098;51.680;5.134;2023-04-25T02:28:48;23.73;;;5.78;;
70545;SDS011;58098;51.680;5.134;2023-04-25T02:31:14;20.47;;;5.63;;
70545;SDS011;58098;51.680;5.134;2023-04-25T02:33:39;31.07;;;6.00;;
70545;SDS011;58098;51.680;5.134;2023-04-25T02:36:05;18.67;;;5.70;;
70545;SDS011;58098;51.680;5.134;2023-04-25T02:38:31;32.40;;;5.97;;
70545;SDS011;58098;51.680;5.134;2023-04-25T02:40:56;27.43;;;6.00;;
70545;SDS011;58098;51.680;5.134;2023-04-25T02:43:21;26.13;;;5.77;;
70545;SDS011;58098;51.680;5.134;2023-04-25T02:45:47;18.27;;;5.73;;
70545;SDS011;58098;51.680;5.134;2023-04-25T02:48:12;19.07;;;5.50;;
70545;SDS011;58098;51.680;5.134;2023-04-25T02:50:37;21.43;;;5.43;;
70545;SDS011;58098;51.680;5.134;2023-04-25T02:53:03;23.20;;;5.70;;
70545;SDS011;58098;51.680;5.134;2023-04-25T02:55:28;21.77;;;5.30;;
70545;SDS011;58098;51.680;5.134;2023-04-25T02:57:53;20.43;;;5.30;;
70545;SDS011;58098;51.680;5.134;2023-04-25T03:00:20;25.95;;;5.57;;
70545;SDS011;58098;51.680;5.134;2023-04-25T03:02:46;22.08;;;5.25;;
70545;SDS011;58098;51.680;5.134;2023-04-25T03:05:11;18.67;;;5.03;;
70545;SDS011;58098;51.680;5.134;2023-04-25T03:07:37;17.67;;;5.70;;
70545;SDS011;58098;51.680;5.134;2023-04-25T03:10:04;20.30;;;5.05;;
70545;SDS011;58098;51.680;5.134;2023-04-25T03:12:31;13.38;;;5.07;;
70545;SDS011;58098;51.680;5.134;2023-04-25T03:14:56;20.17;;;5.80;;
70545;SDS011;58098;51.680;5.134;2023-04-25T03:17:21;21.17;;;4.90;;
70545;SDS011;58098;51.680;5.134;2023-04-25T03:19:47;17.97;;;4.10;;
70545;SDS011;58098;51.680;5.134;2023-04-25T03:22:12;21.77;;;4.87;;
70545;SDS011;58098;51.680;5.134;2023-04-25T03:24:38;18.30;;;5.00;;
70545;SDS011;58098;51.680;5.134;2023-04-25T03:27:03;20.40;;;5.17;;
70545;SDS011;58098;51.680;5.134;2023-04-25T03:29:28;19.17;;;5.13;;
70545;SDS011;58098;51.680;5.134;2023-04-25T03:31:54;17.83;;;5.03;;
70545;SDS011;58098;51.680;5.134;2023-04-25T03:34:19;13.27;;;5.20;;
70545;SDS011;58098;51.680;5.134;2023-04-25T03:36:46;18.98;;;5.13;;
70545;SDS011;58098;51.680;5.134;2023-04-25T03:39:11;17.40;;;5.00;;
70545;SDS011;58098;51.680;5.134;2023-04-25T03:41:37;20.20;;;5.87;;
70545;SDS011;58098;51.680;5.134;2023-04-25T03:44:02;23.33;;;5.50;;
70545;SDS011;58098;51.680;5.134;2023-04-25T03:46:27;23.07;;;5.60;;
70545;SDS011;58098;51.680;5.134;2023-04-25T03:48:53;22.50;;;5.47;;
70545;SDS011;58098;51.680;5.134;2023-04-25T03:51:18;19.50;;;5.30;;
70545;SDS011;58098;51.680;5.134;2023-04-25T03:53:43;12.97;;;5.00;;
70545;SDS011;58098;51.680;5.134;2023-04-25T03:56:09;20.53;;;5.23;;
70545;SDS011;58098;51.680;5.134;2023-04-25T03:58:34;21.40;;;6.20;;
70545;SDS011;58098;51.680;5.134;2023-04-25T04:01:00;19.70;;;5.20;;
70545;SDS011;58098;51.680;5.134;2023-04-25T04:03:27;19.63;;;4.90;;
70545;SDS011;58098;51.680;5.134;2023-04-25T04:05:52;21.00;;;4.97;;
70545;SDS011;58098;51.680;5.134;2023-04-25T04:08:18;15.03;;;4.93;;
70545;SDS011;58098;51.680;5.134;2023-04-25T04:10:43;16.10;;;5.43;;
70545;SDS011;58098;51.680;5.134;2023-04-25T04:13:08;24.37;;;5.30;;
70545;SDS011;58098;51.680;5.134;2023-04-25T04:15:34;22.00;;;5.40;;
70545;SDS011;58098;51.680;5.134;2023-04-25T04:17:59;17.43;;;5.53;;
70545;SDS011;58098;51.680;5.134;2023-04-25T04:20:27;16.08;;;5.22;;
70545;SDS011;58098;51.680;5.134;2023-04-25T04:22:54;18.38;;;5.60;;
70545;SDS011;58098;51.680;5.134;2023-04-25T04:25:19;14.67;;;5.07;;
70545;SDS011;58098;51.680;5.134;2023-04-25T04:27:45;20.53;;;6.33;;
70545;SDS011;58098;51.680;5.134;2023-04-25T04:30:11;17.90;;;5.77;;
70545;SDS011;58098;51.680;5.134;2023-04-25T04:32:37;22.52;;;5.47;;
70545;SDS011;58098;51.680;5.134;2023-04-25T04:35:03;13.95;;;5.10;;
70545;SDS011;58098;51.680;5.134;2023-04-25T04:37:29;16.88;;;5.90;;
70545;SDS011;58098;51.680;5.134;2023-04-25T04:39:55;18.63;;;5.00;;
70545;SDS011;58098;51.680;5.134;2023-04-25T04:42:20;17.70;;;5.23;;
70545;SDS011;58098;51.680;5.134;2023-04-25T04:44:46;16.98;;;5.18;;
70545;SDS011;58098;51.680;5.134;2023-04-25T04:47:11;17.83;;;4.97;;
70545;SDS011;58098;51.680;5.134;2023-04-25T04:49:39;22.70;;;5.68;;
70545;SDS011;58098;51.680;5.134;2023-04-25T04:52:04;19.33;;;5.63;;
70545;SDS011;58098;51.680;5.134;2023-04-25T04:54:30;24.60;;;6.60;;
70545;SDS011;58098;51.680;5.134;2023-04-25T04:56:55;14.73;;;5.30;;
70545;SDS011;58098;51.680;5.134;2023-04-25T04:59:21;17.50;;;6.40;;
70545;SDS011;58098;51.680;5.134;2023-04-25T05:01:46;21.00;;;5.90;;
70545;SDS011;58098;51.680;5.134;2023-04-25T05:04:12;19.87;;;6.17;;
70545;SDS011;58098;51.680;5.134;2023-04-25T05:06:37;22.30;;;6.27;;
70545;SDS011;58098;51.680;5.134;2023-04-25T05:09:02;21.97;;;6.07;;
70545;SDS011;58098;51.680;5.134;2023-04-25T05:11:28;20.08;;;5.70;;
70545;SDS011;58098;51.680;5.134;2023-04-25T05:13:54;21.40;;;5.83;;
70545;SDS011;58098;51.680;5.134;2023-04-25T05:16:19;23.40;;;6.25;;
70545;SDS011;58098;51.680;5.134;2023-04-25T05:18:45;19.77;;;6.27;;
70545;SDS011;58098;51.680;5.134;2023-04-25T05:21:12;19.75;;;5.95;;
70545;SDS011;58098;51.680;5.134;2023-04-25T05:23:37;20.17;;;5.90;;
70545;SDS011;58098;51.680;5.134;2023-04-25T05:26:02;19.00;;;4.87;;
70545;SDS011;58098;51.680;5.134;2023-04-25T05:28:27;15.47;;;4.97;;
70545;SDS011;58098;51.680;5.134;2023-04-25T05:30:53;15.93;;;3.93;;
70545;SDS011;58098;51.680;5.134;2023-04-25T05:33:18;20.57;;;4.87;;
70545;SDS011;58098;51.680;5.134;2023-04-25T05:35:44;18.27;;;4.40;;
70545;SDS011;58098;51.680;5.134;2023-04-25T05:38:09;13.35;;;3.95;;
70545;SDS011;58098;51.680;5.134;2023-04-25T05:40:35;10.17;;;4.50;;
70545;SDS011;58098;51.680;5.134;2023-04-25T05:43:01;15.97;;;4.27;;
70545;SDS011;58098;51.680;5.134;2023-04-25T05:45:26;16.13;;;4.33;;
70545;SDS011;58098;51.680;5.134;2023-04-25T05:47:51;16.47;;;3.80;;
70545;SDS011;58098;51.680;5.134;2023-04-25T05:50:17;10.70;;;3.53;;
70545;SDS011;58098;51.680;5.134;2023-04-25T05:52:42;15.07;;;4.23;;
70545;SDS011;58098;51.680;5.134;2023-04-25T05:55:07;10.23;;;4.20;;
70545;SDS011;58098;51.680;5.134;2023-04-25T05:57:33;18.77;;;4.18;;
70545;SDS011;58098;51.680;5.134;2023-04-25T05:59:59;10.57;;;3.40;;
70545;SDS011;58098;51.680;5.134;2023-04-25T06:02:24;12.27;;;3.30;;
70545;SDS011;58098;51.680;5.134;2023-04-25T06:04:50;12.93;;;3.27;;
70545;SDS011;58098;51.680;5.134;2023-04-25T06:07:16;9.68;;;2.88;;
70545;SDS011;58098;51.680;5.134;2023-04-25T06:09:41;11.82;;;3.63;;
70545;SDS011;58098;51.680;5.134;2023-04-25T06:12:06;13.80;;;3.70;;
70545;SDS011;58098;51.680;5.134;2023-04-25T06:14:32;11.63;;;3.20;;
70545;SDS011;58098;51.680;5.134;2023-04-25T06:16:58;9.63;;;3.08;;
70545;SDS011;58098;51.680;5.134;2023-04-25T06:19:24;10.03;;;3.43;;
70545;SDS011;58098;51.680;5.134;2023-04-25T06:21:49;11.63;;;3.40;;
70545;SDS011;58098;51.680;5.134;2023-04-25T06:24:14;15.10;;;4.10;;
70545;SDS011;58098;51.680;5.134;2023-04-25T06:26:39;6.97;;;3.23;;
70545;SDS011;58098;51.680;5.134;2023-04-25T06:29:05;13.37;;;3.23;;
70545;SDS011;58098;51.680;5.134;2023-04-25T06:31:30;9.25;;;2.70;;
70545;SDS011;58098;51.680;5.134;2023-04-25T06:33:57;12.97;;;3.27;;
70545;SDS011;58098;51.680;5.134;2023-04-25T06:36:23;12.15;;;3.22;;
70545;SDS011;58098;51.680;5.134;2023-04-25T06:38:50;9.03;;;2.50;;
70545;SDS011;58098;51.680;5.134;2023-04-25T06:41:19;9.75;;;3.22;;
70545;SDS011;58098;51.680;5.134;2023-04-25T06:43:44;9.93;;;3.10;;
70545;SDS011;58098;51.680;5.134;2023-04-25T06:46:10;14.80;;;3.27;;
70545;SDS011;58098;51.680;5.134;2023-04-25T06:48:36;12.67;;;3.13;;
70545;SDS011;58098;51.680;5.134;2023-04-25T06:51:01;8.48;;;2.50;;
70545;SDS011;58098;51.680;5.134;2023-04-25T06:53:26;7.57;;;2.77;;
70545;SDS011;58098;51.680;5.134;2023-04-25T06:55:52;10.57;;;2.90;;
70545;SDS011;58098;51.680;5.134;2023-04-25T06:58:17;10.13;;;2.97;;
70545;SDS011;58098;51.680;5.134;2023-04-25T07:00:43;9.00;;;3.03;;
70545;SDS011;58098;51.680;5.134;2023-04-25T07:03:08;11.77;;;3.20;;
70545;SDS011;58098;51.680;5.134;2023-04-25T07:05:34;11.10;;;3.07;;
70545;SDS011;58098;51.680;5.134;2023-04-25T07:07:59;9.95;;;3.25;;
70545;SDS011;58098;51.680;5.134;2023-04-25T07:10:25;7.93;;;2.80;;
70545;SDS011;58098;51.680;5.134;2023-04-25T07:12:50;6.63;;;2.53;;
70545;SDS011;58098;51.680;5.134;2023-04-25T07:15:16;4.83;;;2.70;;
70545;SDS011;58098;51.680;5.134;2023-04-25T07:17:41;9.52;;;3.35;;
70545;SDS011;58098;51.680;5.134;2023-04-25T07:20:07;7.27;;;2.60;;
70545;SDS011;58098;51.680;5.134;2023-04-25T07:22:34;6.03;;;2.55;;
70545;SDS011;58098;51.680;5.134;2023-04-25T07:24:59;12.43;;;3.13;;
70545;SDS011;58098;51.680;5.134;2023-04-25T07:27:24;8.27;;;2.53;;
70545;SDS011;58098;51.680;5.134;2023-04-25T07:29:50;6.23;;;1.87;;
70545;SDS011;58098;51.680;5.134;2023-04-25T07:32:15;11.88;;;2.50;;
70545;SDS011;58098;51.680;5.134;2023-04-25T07:34:41;8.87;;;2.97;;
70545;SDS011;58098;51.680;5.134;2023-04-25T07:37:06;4.33;;;2.53;;
70545;SDS011;58098;51.680;5.134;2023-04-25T07:39:32;12.57;;;2.70;;
70545;SDS011;58098;51.680;5.134;2023-04-25T07:41:57;7.00;;;2.80;;
70545;SDS011;58098;51.680;5.134;2023-04-25T07:44:27;7.38;;;2.65;;
70545;SDS011;58098;51.680;5.134;2023-04-25T07:46:52;8.05;;;2.30;;
70545;SDS011;58098;51.680;5.134;2023-04-25T07:49:17;3.83;;;2.30;;
70545;SDS011;58098;51.680;5.134;2023-04-25T07:51:43;17.30;;;2.77;;
70545;SDS011;58098;51.680;5.134;2023-04-25T07:54:09;7.37;;;2.47;;
70545;SDS011;58098;51.680;5.134;2023-04-25T07:56:34;6.55;;;2.33;;
70545;SDS011;58098;51.680;5.134;2023-04-25T07:59:00;7.30;;;2.63;;
70545;SDS011;58098;51.680;5.134;2023-04-25T08:01:25;9.50;;;2.40;;
70545;SDS011;58098;51.680;5.134;2023-04-25T08:03:51;4.57;;;2.15;;
70545;SDS011;58098;51.680;5.134;2023-04-25T08:06:17;8.27;;;2.13;;
70545;SDS011;58098;51.680;5.134;2023-04-25T08:08:42;11.03;;;2.57;;
70545;SDS011;58098;51.680;5.134;2023-04-25T08:11:08;9.03;;;2.50;;
70545;SDS011;58098;51.680;5.134;2023-04-25T08:13:33;12.17;;;2.80;;
70545;SDS011;58098;51.680;5.134;2023-04-25T08:15:59;9.80;;;2.42;;
70545;SDS011;58098;51.680;5.134;2023-04-25T08:18:24;9.70;;;2.47;;
70545;SDS011;58098;51.680;5.134;2023-04-25T08:20:49;8.13;;;2.43;;
70545;SDS011;58098;51.680;5.134;2023-04-25T08:23:15;7.30;;;2.37;;
70545;SDS011;58098;51.680;5.134;2023-04-25T08:25:40;9.67;;;2.60;;
70545;SDS011;58098;51.680;5.134;2023-04-25T08:28:06;5.63;;;2.40;;
70545;SDS011;58098;51.680;5.134;2023-04-25T08:30:31;10.88;;;2.70;;
70545;SDS011;58098;51.680;5.134;2023-04-25T08:32:56;8.40;;;2.30;;
70545;SDS011;58098;51.680;5.134;2023-04-25T08:35:22;7.97;;;2.50;;
70545;SDS011;58098;51.680;5.134;2023-04-25T08:37:48;6.47;;;2.37;;
70545;SDS011;58098;51.680;5.134;2023-04-25T08:40:14;9.65;;;2.50;;
70545;SDS011;58098;51.680;5.134;2023-04-25T08:42:41;10.60;;;2.73;;
70545;SDS011;58098;51.680;5.134;2023-04-25T08:45:08;13.52;;;2.83;;
70545;SDS011;58098;51.680;5.134;2023-04-25T08:47:34;9.93;;;2.88;;
70545;SDS011;58098;51.680;5.134;2023-04-25T08:50:00;9.77;;;2.55;;
70545;SDS011;58098;51.680;5.134;2023-04-25T08:52:27;7.80;;;2.57;;
70545;SDS011;58098;51.680;5.134;2023-04-25T08:54:55;7.25;;;2.67;;
70545;SDS011;58098;51.680;5.134;2023-04-25T08:57:22;8.70;;;3.30;;
70545;SDS011;58098;51.680;5.134;2023-04-25T08:59:48;9.35;;;2.75;;
70545;SDS011;58098;51.680;5.134;2023-04-25T09:02:14;14.80;;;2.83;;
70545;SDS011;58098;51.680;5.134;2023-04-25T09:04:42;10.65;;;2.03;;
70545;SDS011;58098;51.680;5.134;2023-04-25T09:07:08;7.68;;;2.22;;
70545;SDS011;58098;51.680;5.134;2023-04-25T09:09:34;7.60;;;2.70;;
70545;SDS011;58098;51.680;5.134;2023-04-25T09:12:00;8.32;;;2.28;;
70545;SDS011;58098;51.680;5.134;2023-04-25T09:14:26;10.18;;;3.00;;
70545;SDS011;58098;51.680;5.134;2023-04-25T09:19:24;12.15;;;2.72;;
70545;SDS011;58098;51.680;5.134;2023-04-25T09:22:01;10.47;;;2.33;;
70545;SDS011;58098;51.680;5.134;2023-04-25T09:26:56;12.23;;;2.80;;
70545;SDS011;58098;51.680;5.134;2023-04-25T09:29:28;9.17;;;2.80;;
70545;SDS011;58098;51.680;5.134;2023-04-25T09:32:10;10.65;;;3.22;;
70545;SDS011;58098;51.680;5.134;2023-04-25T09:34:39;10.13;;;2.63;;
70545;SDS011;58098;51.680;5.134;2023-04-25T09:37:05;8.77;;;2.60;;
70545;SDS011;58098;51.680;5.134;2023-04-25T09:39:32;7.53;;;2.70;;
70545;SDS011;58098;51.680;5.134;2023-04-25T09:41:58;5.45;;;2.58;;
70545;SDS011;58098;51.680;5.134;2023-04-25T09:44:24;9.07;;;2.60;;
70545;SDS011;58098;51.680;5.134;2023-04-25T09:46:49;8.00;;;2.70;;
70545;SDS011;58098;51.680;5.134;2023-04-25T09:49:19;7.87;;;1.90;;
70545;SDS011;58098;51.680;5.134;2023-04-25T09:51:57;7.80;;;2.45;;
70545;SDS011;58098;51.680;5.134;2023-04-25T09:54:24;9.55;;;2.72;;
70545;SDS011;58098;51.680;5.134;2023-04-25T09:56:51;7.07;;;2.13;;
70545;SDS011;58098;51.680;5.134;2023-04-25T09:59:19;7.80;;;2.53;;
70545;SDS011;58098;51.680;5.134;2023-04-25T10:01:46;7.87;;;2.30;;
70545;SDS011;58098;51.680;5.134;2023-04-25T10:04:13;6.72;;;2.22;;
70545;SDS011;58098;51.680;5.134;2023-04-25T10:06:43;6.50;;;2.63;;
70545;SDS011;58098;51.680;5.134;2023-04-25T10:09:11;9.48;;;1.90;;
70545;SDS011;58098;51.680;5.134;2023-04-25T10:11:37;11.90;;;2.70;;
70545;SDS011;58098;51.680;5.134;2023-04-25T10:14:04;6.70;;;2.13;;
70545;SDS011;58098;51.680;5.134;2023-04-25T10:16:30;8.63;;;2.38;;
70545;SDS011;58098;51.680;5.134;2023-04-25T10:18:56;7.87;;;2.10;;
70545;SDS011;58098;51.680;5.134;2023-04-25T10:21:21;6.35;;;1.83;;
70545;SDS011;58098;51.680;5.134;2023-04-25T10:23:47;8.63;;;2.10;;
70545;SDS011;58098;51.680;5.134;2023-04-25T10:26:14;10.43;;;2.75;;
70545;SDS011;58098;51.680;5.134;2023-04-25T10:31:26;4.70;;;2.08;;
70545;SDS011;58098;51.680;5.134;2023-04-25T10:33:51;4.50;;;1.73;;
70545;SDS011;58098;51.680;5.134;2023-04-25T10:36:18;6.15;;;2.08;;
70545;SDS011;58098;51.680;5.134;2023-04-25T10:38:48;4.07;;;1.30;;
70545;SDS011;58098;51.680;5.134;2023-04-25T10:41:18;4.22;;;1.80;;
70545;SDS011;58098;51.680;5.134;2023-04-25T10:43:48;5.50;;;1.98;;
70545;SDS011;58098;51.680;5.134;2023-04-25T10:46:22;4.75;;;1.88;;
70545;SDS011;58098;51.680;5.134;2023-04-25T10:48:51;5.68;;;2.10;;
70545;SDS011;58098;51.680;5.134;2023-04-25T10:51:19;5.40;;;1.77;;
70545;SDS011;58098;51.680;5.134;2023-04-25T10:54:08;5.75;;;1.90;;
70545;SDS011;58098;51.680;5.134;2023-04-25T10:56:36;10.43;;;2.22;;
70545;SDS011;58098;51.680;5.134;2023-04-25T10:59:05;11.05;;;2.00;;
70545;SDS011;58098;51.680;5.134;2023-04-25T11:01:42;5.22;;;2.05;;
70545;SDS011;58098;51.680;5.134;2023-04-25T11:04:19;7.40;;;2.10;;
70545;SDS011;58098;51.680;5.134;2023-04-25T11:06:55;5.28;;;1.48;;
70545;SDS011;58098;51.680;5.134;2023-04-25T11:09:27;5.47;;;2.22;;
70545;SDS011;58098;51.680;5.134;2023-04-25T11:11:56;5.67;;;2.00;;
70545;SDS011;58098;51.680;5.134;2023-04-25T11:14:23;5.23;;;1.67;;
70545;SDS011;58098;51.680;5.134;2023-04-25T11:16:55;3.75;;;1.70;;
70545;SDS011;58098;51.680;5.134;2023-04-25T11:19:22;5.47;;;2.13;;
70545;SDS011;58098;51.680;5.134;2023-04-25T11:21:48;5.63;;;1.70;;
70545;SDS011;58098;51.680;5.134;2023-04-25T11:24:15;6.40;;;1.92;;
70545;SDS011;58098;51.680;5.134;2023-04-25T11:26:41;5.93;;;1.77;;
70545;SDS011;58098;51.680;5.134;2023-04-25T11:29:07;6.22;;;1.73;;
70545;SDS011;58098;51.680;5.134;2023-04-25T11:31:33;4.97;;;1.97;;
70545;SDS011;58098;51.680;5.134;2023-04-25T11:33:59;3.27;;;1.47;;
70545;SDS011;58098;51.680;5.134;2023-04-25T11:36:25;9.07;;;1.85;;
70545;SDS011;58098;51.680;5.134;2023-04-25T11:38:51;8.05;;;1.92;;
70545;SDS011;58098;51.680;5.134;2023-04-25T11:41:19;7.20;;;1.92;;
70545;SDS011;58098;51.680;5.134;2023-04-25T11:43:45;4.07;;;1.90;;
70545;SDS011;58098;51.680;5.134;2023-04-25T11:46:10;6.37;;;1.80;;
70545;SDS011;58098;51.680;5.134;2023-04-25T11:48:39;5.60;;;2.33;;
70545;SDS011;58098;51.680;5.134;2023-04-25T11:51:05;4.95;;;2.10;;
70545;SDS011;58098;51.680;5.134;2023-04-25T11:53:30;7.07;;;1.97;;
70545;SDS011;58098;51.680;5.134;2023-04-25T11:55:56;5.80;;;1.70;;
70545;SDS011;58098;51.680;5.134;2023-04-25T11:58:21;7.27;;;1.73;;
70545;SDS011;58098;51.680;5.134;2023-04-25T12:00:47;6.60;;;2.40;;
70545;SDS011;58098;51.680;5.134;2023-04-25T12:03:13;5.30;;;1.83;;
70545;SDS011;58098;51.680;5.134;2023-04-25T12:05:38;7.73;;;1.70;;
70545;SDS011;58098;51.680;5.134;2023-04-25T12:08:14;7.35;;;1.70;;
70545;SDS011;58098;51.680;5.134;2023-04-25T12:10:41;6.10;;;1.50;;
70545;SDS011;58098;51.680;5.134;2023-04-25T12:13:21;4.55;;;1.63;;
70545;SDS011;58098;51.680;5.134;2023-04-25T12:15:51;7.10;;;2.10;;
70545;SDS011;58098;51.680;5.134;2023-04-25T12:18:20;5.00;;;2.03;;
70545;SDS011;58098;51.680;5.134;2023-04-25T12:20:47;4.82;;;1.92;;
70545;SDS011;58098;51.680;5.134;2023-04-25T12:23:13;6.97;;;1.77;;
70545;SDS011;58098;51.680;5.134;2023-04-25T12:25:39;11.30;;;2.23;;
70545;SDS011;58098;51.680;5.134;2023-04-25T12:30:51;7.00;;;2.53;;
70545;SDS011;58098;51.680;5.134;2023-04-25T12:33:18;5.85;;;2.10;;
70545;SDS011;58098;51.680;5.134;2023-04-25T12:35:43;5.70;;;2.30;;
70545;SDS011;58098;51.680;5.134;2023-04-25T12:38:08;7.90;;;1.83;;
70545;SDS011;58098;51.680;5.134;2023-04-25T12:40:33;5.83;;;1.80;;
70545;SDS011;58098;51.680;5.134;2023-04-25T12:42:59;4.47;;;1.77;;
70545;SDS011;58098;51.680;5.134;2023-04-25T12:45:24;11.75;;;2.60;;
70545;SDS011;58098;51.680;5.134;2023-04-25T12:47:50;8.77;;;1.97;;
70545;SDS011;58098;51.680;5.134;2023-04-25T12:50:15;8.23;;;2.00;;
70545;SDS011;58098;51.680;5.134;2023-04-25T12:52:40;9.20;;;2.07;;
70545;SDS011;58098;51.680;5.134;2023-04-25T12:55:06;9.53;;;2.10;;
70545;SDS011;58098;51.680;5.134;2023-04-25T12:57:31;10.80;;;2.60;;
70545;SDS011;58098;51.680;5.134;2023-04-25T12:59:56;9.07;;;2.35;;
70545;SDS011;58098;51.680;5.134;2023-04-25T13:02:22;7.67;;;2.00;;
70545;SDS011;58098;51.680;5.134;2023-04-25T13:04:47;7.83;;;2.27;;
70545;SDS011;58098;51.680;5.134;2023-04-25T13:07:12;6.10;;;2.07;;
70545;SDS011;58098;51.680;5.134;2023-04-25T13:09:38;10.43;;;2.43;;
70545;SDS011;58098;51.680;5.134;2023-04-25T13:12:03;6.07;;;1.90;;
70545;SDS011;58098;51.680;5.134;2023-04-25T13:14:29;6.95;;;1.83;;
70545;SDS011;58098;51.680;5.134;2023-04-25T13:16:54;5.80;;;1.87;;
70545;SDS011;58098;51.680;5.134;2023-04-25T13:19:20;10.87;;;1.80;;
70545;SDS011;58098;51.680;5.134;2023-04-25T13:21:45;6.33;;;2.00;;
70545;SDS011;58098;51.680;5.134;2023-04-25T13:24:10;7.93;;;2.13;;
70545;SDS011;58098;51.680;5.134;2023-04-25T13:26:36;8.85;;;2.45;;
70545;SDS011;58098;51.680;5.134;2023-04-25T13:29:01;5.80;;;1.83;;
70545;SDS011;58098;51.680;5.134;2023-04-25T13:31:28;6.73;;;1.80;;
70545;SDS011;58098;51.680;5.134;2023-04-25T13:33:54;6.35;;;2.00;;
70545;SDS011;58098;51.680;5.134;2023-04-25T13:36:19;3.63;;;2.33;;
70545;SDS011;58098;51.680;5.134;2023-04-25T13:38:44;6.53;;;2.30;;
70545;SDS011;58098;51.680;5.134;2023-04-25T13:41:12;7.78;;;2.15;;
70545;SDS011;58098;51.680;5.134;2023-04-25T13:43:42;9.43;;;2.25;;
70545;SDS011;58098;51.680;5.134;2023-04-25T13:46:07;6.13;;;1.90;;
70545;SDS011;58098;51.680;5.134;2023-04-25T13:48:33;16.10;;;2.93;;
70545;SDS011;58098;51.680;5.134;2023-04-25T13:50:58;10.13;;;2.20;;
70545;SDS011;58098;51.680;5.134;2023-04-25T13:53:24;6.50;;;1.80;;
70545;SDS011;58098;51.680;5.134;2023-04-25T13:55:49;6.13;;;1.90;;
70545;SDS011;58098;51.680;5.134;2023-04-25T13:58:14;2.73;;;1.60;;
70545;SDS011;58098;51.680;5.134;2023-04-25T14:00:40;5.47;;;1.70;;
70545;SDS011;58098;51.680;5.134;2023-04-25T14:03:08;4.07;;;1.88;;
70545;SDS011;58098;51.680;5.134;2023-04-25T14:05:33;4.17;;;1.40;;
70545;SDS011;58098;51.680;5.134;2023-04-25T14:08:03;3.63;;;1.63;;
70545;SDS011;58098;51.680;5.134;2023-04-25T14:10:29;6.07;;;1.90;;
70545;SDS011;58098;51.680;5.134;2023-04-25T14:12:55;6.97;;;2.07;;
70545;SDS011;58098;51.680;5.134;2023-04-25T14:15:20;9.13;;;1.80;;
70545;SDS011;58098;51.680;5.134;2023-04-25T14:17:45;5.00;;;1.77;;
70545;SDS011;58098;51.680;5.134;2023-04-25T14:20:13;9.38;;;1.90;;
70545;SDS011;58098;51.680;5.134;2023-04-25T14:22:38;4.80;;;1.97;;
70545;SDS011;58098;51.680;5.134;2023-04-25T14:25:07;6.50;;;1.90;;
70545;SDS011;58098;51.680;5.134;2023-04-25T14:27:34;5.05;;;1.83;;
70545;SDS011;58098;51.680;5.134;2023-04-25T14:29:59;3.73;;;2.00;;
70545;SDS011;58098;51.680;5.134;2023-04-25T14:32:24;7.37;;;1.80;;
70545;SDS011;58098;51.680;5.134;2023-04-25T14:34:49;8.40;;;1.77;;
70545;SDS011;58098;51.680;5.134;2023-04-25T14:37:15;5.10;;;1.92;;
70545;SDS011;58098;51.680;5.134;2023-04-25T14:39:41;6.87;;;2.03;;
70545;SDS011;58098;51.680;5.134;2023-04-25T14:42:06;3.50;;;1.90;;
70545;SDS011;58098;51.680;5.134;2023-04-25T14:44:31;6.20;;;2.00;;